createdAt,value
2018-07-12T00:00:27.017Z,95.80
2018-07-12T00:02:54.361Z,95.80
2018-07-12T00:07:49.409Z,96.00
2018-07-12T00:10:16.774Z,96.10
2018-07-12T00:12:44.100Z,96.10
2018-07-12T00:17:39.145Z,96.10
2018-07-12T00:20:06.791Z,96.00
2018-07-12T00:22:34.126Z,96.00
2018-07-12T00:25:01.495Z,96.10
2018-07-12T00:27:28.894Z,96.20
2018-07-12T00:29:56.215Z,96.20
2018-07-12T00:32:23.831Z,96.30
2018-07-12T00:34:51.182Z,96.30
2018-07-12T00:37:18.535Z,96.10
2018-07-12T00:39:45.871Z,96.00
2018-07-12T00:44:40.788Z,95.80
2018-07-12T00:47:08.126Z,95.60
2018-07-12T00:49:35.468Z,95.50
2018-07-12T00:52:02.875Z,95.30
2018-07-12T00:54:30.255Z,95.10
2018-07-12T00:56:57.622Z,94.90
2018-07-12T00:59:24.957Z,94.70
2018-07-12T01:01:52.313Z,94.70
2018-07-12T01:04:19.634Z,94.80
2018-07-12T01:06:47.244Z,94.90
2018-07-12T01:09:14.586Z,95.10
2018-07-12T01:11:41.926Z,95.20
2018-07-12T01:14:09.272Z,95.50
2018-07-12T01:16:36.710Z,95.60
2018-07-12T01:19:04.174Z,95.70
2018-07-12T01:21:31.633Z,95.80
2018-07-12T01:23:58.953Z,95.90
2018-07-12T01:26:26.281Z,95.90
2018-07-12T01:28:53.665Z,96.10
2018-07-12T01:31:21.071Z,96.30
2018-07-12T01:33:48.539Z,96.30
2018-07-12T01:36:15.964Z,96.40
2018-07-12T01:38:43.350Z,96.50
2018-07-12T01:41:10.668Z,96.50
2018-07-12T01:43:38.007Z,96.50
2018-07-12T01:46:05.647Z,96.60
2018-07-12T01:48:33.084Z,96.50
2018-07-12T01:51:00.435Z,96.50
2018-07-12T01:55:55.455Z,96.50
2018-07-12T02:00:50.331Z,96.60
2018-07-12T02:03:17.774Z,96.90
2018-07-12T02:05:45.134Z,96.70
2018-07-12T02:08:12.596Z,96.70
2018-07-12T02:10:40.058Z,96.80
2018-07-12T02:13:07.366Z,96.80
2018-07-12T02:15:34.782Z,96.80
2018-07-12T02:18:02.144Z,96.80
2018-07-12T02:20:29.585Z,96.80
2018-07-12T02:22:56.920Z,96.80
2018-07-12T02:30:19.434Z,96.80
2018-07-12T02:32:46.826Z,96.90
2018-07-12T02:35:14.281Z,96.90
2018-07-12T02:37:41.736Z,96.80
2018-07-12T02:40:09.105Z,96.80
2018-07-12T02:42:36.403Z,96.80
2018-07-12T02:45:03.768Z,96.80
2018-07-12T02:47:31.180Z,96.80
2018-07-12T02:49:58.498Z,96.90
2018-07-12T02:52:25.863Z,96.90
2018-07-12T02:57:20.814Z,97.00
2018-07-12T02:59:48.283Z,97.00
2018-07-12T03:02:15.743Z,97.40
2018-07-12T03:04:43.177Z,97.40
2018-07-12T03:07:10.535Z,97.40
2018-07-12T03:12:05.593Z,97.40
2018-07-12T03:14:32.931Z,97.40
2018-07-12T03:17:00.311Z,97.60
2018-07-12T03:19:27.783Z,97.60
2018-07-12T03:21:55.223Z,97.70
2018-07-12T03:24:22.570Z,97.70
2018-07-12T03:26:49.949Z,97.80
2018-07-12T03:29:17.324Z,97.80
2018-07-12T03:31:44.676Z,97.80
2018-07-12T03:34:12.046Z,97.80
2018-07-12T03:36:39.397Z,97.90
2018-07-12T03:39:06.739Z,97.80
2018-07-12T03:41:34.095Z,97.80
2018-07-12T03:44:01.427Z,97.90
2018-07-12T03:46:28.783Z,97.90
2018-07-12T03:51:23.721Z,98.10
2018-07-12T03:53:51.068Z,98.10
2018-07-12T03:56:18.404Z,98.10
2018-07-12T03:58:45.840Z,98.00
2018-07-12T04:01:13.200Z,98.00
2018-07-12T04:03:40.610Z,98.00
2018-07-12T04:06:07.903Z,98.00
2018-07-12T04:08:35.246Z,98.10
2018-07-12T04:11:02.684Z,98.20
2018-07-12T04:13:30.009Z,98.30
2018-07-12T04:15:57.366Z,98.20
2018-07-12T04:18:24.925Z,98.20
2018-07-12T04:20:52.247Z,98.20
2018-07-12T04:23:19.605Z,98.10
2018-07-12T04:28:14.557Z,98.40
2018-07-12T04:30:41.889Z,98.20
2018-07-12T04:33:09.289Z,98.30
2018-07-12T04:35:36.661Z,98.50
2018-07-12T04:38:04.112Z,98.30
2018-07-12T04:40:31.475Z,98.40
2018-07-12T04:42:58.902Z,98.40
2018-07-12T04:45:26.297Z,98.40
2018-07-12T04:47:53.755Z,98.50
2018-07-12T04:50:21.220Z,98.10
2018-07-12T04:52:48.556Z,97.90
2018-07-12T04:55:16.033Z,97.90
2018-07-12T04:57:43.409Z,97.80
2018-07-12T05:00:10.769Z,97.80
2018-07-12T05:02:38.199Z,97.70
2018-07-12T05:05:05.754Z,97.70
2018-07-12T05:07:33.116Z,97.70
2018-07-12T05:10:00.510Z,98.00
2018-07-12T05:12:27.868Z,97.70
2018-07-12T05:14:55.305Z,97.60
2018-07-12T05:17:22.676Z,97.60
2018-07-12T05:22:17.646Z,97.60
2018-07-12T05:24:45.077Z,97.50
2018-07-12T05:27:12.417Z,97.40
2018-07-12T05:29:39.771Z,97.30
2018-07-12T05:32:07.118Z,97.50
2018-07-12T05:37:03.288Z,97.10
2018-07-12T05:39:31.776Z,96.10
2018-07-12T05:44:28.625Z,96.10
2018-07-12T05:46:57.457Z,96.70
2018-07-12T05:49:25.941Z,96.90
2018-07-12T05:51:54.530Z,97.10
2018-07-12T05:54:23.017Z,96.90
2018-07-12T05:56:51.509Z,97.30
2018-07-12T05:59:20.092Z,97.30
2018-07-12T06:02:00.039Z,96.90
2018-07-12T06:04:28.519Z,96.70
2018-07-12T06:06:57.008Z,96.60
2018-07-12T06:09:25.472Z,96.80
2018-07-12T06:14:22.138Z,93.90
2018-07-12T06:21:46.969Z,92.60
2018-07-12T06:24:15.878Z,93.00
2018-07-12T06:26:44.362Z,93.10
2018-07-12T06:29:12.981Z,93.50
2018-07-12T06:31:41.474Z,93.20
2018-07-12T06:34:10.045Z,93.80
2018-07-12T06:36:39.544Z,92.50
2018-07-12T06:39:09.976Z,92.60
2018-07-12T06:41:38.475Z,92.90
2018-07-12T06:44:07.929Z,93.40
2018-07-12T06:46:36.400Z,94.40
2018-07-12T06:49:05.270Z,94.50
2018-07-12T06:51:34.032Z,94.60
2018-07-12T06:59:05.438Z,93.30
2018-07-12T07:01:33.999Z,94.30
2018-07-12T07:04:02.614Z,93.80
2018-07-12T07:06:31.084Z,92.50
2018-07-12T07:11:28.116Z,91.30
2018-07-12T07:13:56.744Z,90.70
2018-07-12T07:16:25.574Z,90.40
2018-07-12T07:18:54.324Z,90.20
2018-07-12T07:21:23.238Z,90.30
2018-07-12T07:23:52.789Z,89.80
2018-07-12T07:26:21.313Z,89.30
2018-07-12T07:31:18.027Z,90.40
2018-07-12T07:33:46.593Z,90.20
2018-07-12T07:36:15.077Z,90.30
2018-07-12T07:38:43.676Z,88.50
2018-07-12T07:41:12.257Z,89.80
2018-07-12T07:43:40.726Z,90.70
2018-07-12T07:48:37.463Z,88.50
2018-07-12T07:51:05.994Z,89.50
2018-07-12T07:53:34.525Z,90.10
2018-07-12T07:56:03.683Z,90.10
2018-07-12T07:58:33.102Z,90.10
2018-07-12T08:01:01.608Z,88.90
2018-07-12T08:03:30.607Z,86.60
2018-07-12T08:05:59.183Z,86.30
2018-07-12T08:08:27.704Z,83.40
2018-07-12T08:10:57.075Z,88.60
2018-07-12T08:13:25.593Z,85.80
2018-07-12T08:15:54.072Z,86.70
2018-07-12T08:18:22.611Z,84.60
2018-07-12T08:20:51.197Z,83.90
2018-07-12T08:23:19.787Z,83.30
2018-07-12T08:25:48.302Z,84.20
2018-07-12T08:28:24.038Z,82.40
2018-07-12T08:30:52.778Z,83.10
2018-07-12T08:33:21.980Z,82.90
2018-07-12T08:35:50.706Z,79.90
2018-07-12T08:38:19.455Z,79.20
2018-07-12T08:40:48.403Z,80.00
2018-07-12T08:43:16.933Z,80.00
2018-07-12T08:45:45.876Z,78.70
2018-07-12T08:48:14.452Z,80.40
2018-07-12T08:50:45.737Z,78.00
2018-07-12T08:53:14.349Z,78.70
2018-07-12T08:55:42.792Z,77.00
2018-07-12T08:58:11.285Z,79.20
2018-07-12T09:00:39.793Z,78.00
2018-07-12T09:03:08.348Z,77.80
2018-07-12T09:05:36.833Z,77.00
2018-07-12T09:08:06.001Z,79.20
2018-07-12T09:10:35.595Z,78.40
2018-07-12T09:13:04.389Z,76.60
2018-07-12T09:15:33.473Z,77.10
2018-07-12T09:18:02.569Z,77.10
2018-07-12T09:20:31.327Z,78.20
2018-07-12T09:23:00.227Z,77.10
2018-07-12T09:25:28.847Z,75.60
2018-07-12T09:27:57.440Z,76.20
2018-07-12T09:30:26.665Z,75.10
2018-07-12T09:32:55.390Z,76.30
2018-07-12T09:35:24.766Z,75.60
2018-07-12T09:37:53.560Z,75.90
2018-07-12T09:42:50.367Z,78.50
2018-07-12T09:45:26.842Z,76.60
2018-07-12T09:47:55.397Z,75.30
2018-07-12T09:50:23.889Z,72.50
2018-07-12T09:52:52.340Z,72.30
2018-07-12T09:55:20.840Z,71.90
2018-07-12T09:58:00.508Z,73.20
2018-07-12T10:01:38.201Z,72.20
2018-07-12T10:04:06.707Z,73.00
2018-07-12T10:06:39.386Z,72.50
2018-07-12T10:09:13.619Z,71.60
2018-07-12T10:12:48.557Z,70.50
2018-07-12T10:15:23.314Z,68.10
2018-07-12T10:17:55.910Z,71.00
2018-07-12T10:20:24.460Z,70.70
2018-07-12T10:22:53.721Z,69.30
2018-07-12T10:25:22.761Z,68.40
2018-07-12T10:27:51.254Z,67.70
2018-07-12T10:30:19.788Z,67.40
2018-07-12T10:32:48.931Z,70.60
2018-07-12T10:35:17.465Z,69.30
2018-07-12T10:37:46.105Z,69.10
2018-07-12T10:40:14.582Z,70.20
2018-07-12T10:42:43.181Z,70.60
2018-07-12T10:45:12.654Z,69.30
2018-07-12T10:50:09.931Z,65.20
2018-07-12T10:55:06.743Z,66.10
2018-07-12T10:57:35.242Z,67.90
2018-07-12T11:00:04.505Z,66.00
2018-07-12T11:02:33.401Z,66.20
2018-07-12T11:05:01.994Z,66.70
2018-07-12T11:07:30.483Z,66.10
2018-07-12T11:09:58.993Z,67.60
2018-07-12T11:12:27.538Z,66.90
2018-07-12T11:14:56.150Z,66.40
2018-07-12T11:17:24.668Z,68.40
2018-07-12T11:19:53.418Z,67.30
2018-07-12T11:22:22.445Z,66.60
2018-07-12T11:24:50.994Z,65.50
2018-07-12T11:27:19.554Z,66.70
2018-07-12T11:29:53.882Z,64.50
2018-07-12T11:32:22.377Z,67.30
2018-07-12T11:34:51.517Z,66.80
2018-07-12T11:37:23.195Z,66.40
2018-07-12T11:39:51.897Z,66.70
2018-07-12T11:42:20.429Z,68.80
2018-07-12T11:44:49.460Z,70.70
2018-07-12T11:47:18.259Z,66.00
2018-07-12T11:49:46.917Z,66.80
2018-07-12T11:52:15.716Z,66.00
2018-07-12T11:54:44.225Z,64.00
2018-07-12T11:57:12.760Z,67.00
2018-07-12T11:59:41.339Z,65.00
2018-07-12T12:02:09.947Z,66.90
2018-07-12T12:04:38.555Z,68.30
2018-07-12T12:07:07.113Z,66.50
2018-07-12T12:09:35.625Z,68.20
2018-07-12T12:12:04.387Z,65.20
2018-07-12T12:17:01.275Z,67.10
2018-07-12T12:19:29.903Z,68.40
2018-07-12T12:21:59.594Z,68.20
2018-07-12T12:24:28.138Z,66.50
2018-07-12T12:26:56.767Z,64.50
2018-07-12T12:29:25.339Z,65.40
2018-07-12T12:31:53.936Z,63.70
2018-07-12T12:34:22.490Z,63.60
2018-07-12T12:39:19.496Z,66.20
2018-07-12T12:41:48.204Z,65.30
2018-07-12T12:44:17.771Z,65.50
2018-07-12T12:46:46.337Z,67.40
2018-07-12T12:51:43.142Z,65.60
2018-07-12T12:54:11.823Z,66.20
2018-07-12T12:56:40.338Z,68.40
2018-07-12T12:59:08.834Z,66.80
2018-07-12T13:01:37.433Z,65.20
2018-07-12T13:04:06.097Z,66.50
2018-07-12T13:06:34.670Z,66.20
2018-07-12T13:09:04.692Z,69.10
2018-07-12T13:11:33.260Z,67.20
2018-07-12T13:14:01.762Z,68.10
2018-07-12T13:16:30.245Z,68.20
2018-07-12T13:18:58.972Z,66.20
2018-07-12T13:21:27.626Z,67.50
2018-07-12T13:23:56.090Z,66.80
2018-07-12T13:26:24.547Z,68.10
2018-07-12T13:28:53.817Z,69.00
2018-07-12T13:31:22.353Z,66.80
2018-07-12T13:33:50.821Z,65.40
2018-07-12T13:36:19.684Z,66.20
2018-07-12T13:38:48.470Z,68.10
2018-07-12T13:41:16.959Z,70.40
2018-07-12T13:43:45.519Z,68.60
2018-07-12T13:46:13.995Z,68.60
2018-07-12T13:48:42.497Z,70.60
2018-07-12T13:53:39.310Z,70.20
2018-07-12T13:56:07.858Z,70.10
2018-07-12T13:58:36.397Z,70.80
2018-07-12T14:01:05.054Z,69.20
2018-07-12T14:03:34.296Z,68.50
2018-07-12T14:06:02.679Z,66.10
2018-07-12T14:08:31.224Z,67.20
2018-07-12T14:10:59.714Z,66.80
2018-07-12T14:13:28.317Z,66.20
2018-07-12T14:15:56.856Z,70.40
2018-07-12T14:18:25.480Z,67.30
2018-07-12T14:20:53.959Z,68.50
2018-07-12T14:23:22.517Z,68.70
2018-07-12T14:25:51.030Z,69.00
2018-07-12T14:28:19.520Z,69.70
2018-07-12T14:30:47.994Z,70.20
2018-07-12T14:35:44.680Z,67.70
2018-07-12T14:38:13.229Z,68.70
2018-07-12T14:40:41.828Z,68.00
2018-07-12T14:43:10.545Z,67.80
2018-07-12T14:45:39.048Z,68.40
2018-07-12T14:48:07.668Z,70.10
2018-07-12T14:50:36.288Z,69.70
2018-07-12T14:53:04.824Z,68.60
2018-07-12T14:55:33.340Z,69.70
2018-07-12T14:58:01.872Z,70.90
2018-07-12T15:00:30.396Z,71.50
2018-07-12T15:02:58.974Z,70.60
2018-07-12T15:05:27.552Z,70.00
2018-07-12T15:07:56.158Z,70.10
2018-07-12T15:10:24.696Z,69.80
2018-07-12T15:12:53.167Z,69.20
2018-07-12T15:15:21.723Z,69.70
2018-07-12T15:20:18.495Z,71.10
2018-07-12T15:22:47.045Z,70.90
2018-07-12T15:25:15.811Z,71.30
2018-07-12T15:27:44.491Z,70.50
2018-07-12T15:30:13.135Z,72.20
2018-07-12T15:32:41.641Z,70.40
2018-07-12T15:35:10.472Z,68.70
2018-07-12T15:37:38.995Z,69.10
2018-07-12T15:40:07.753Z,69.70
2018-07-12T15:42:36.304Z,70.70
2018-07-12T15:47:32.979Z,70.30
2018-07-12T15:52:29.932Z,69.10
2018-07-12T15:54:58.603Z,69.10
2018-07-12T15:57:27.122Z,69.80
2018-07-12T15:59:55.736Z,68.50
2018-07-12T16:02:24.338Z,68.30
2018-07-12T16:04:52.852Z,70.40
2018-07-12T16:07:22.014Z,70.60
2018-07-12T16:09:50.482Z,70.50
2018-07-12T16:12:19.185Z,70.70
2018-07-12T16:14:47.738Z,70.70
2018-07-12T16:17:16.212Z,69.90
2018-07-12T16:19:44.666Z,70.20
2018-07-12T16:22:13.207Z,70.80
2018-07-12T16:24:41.949Z,69.60
2018-07-12T16:27:10.427Z,70.70
2018-07-12T16:29:38.988Z,70.20
2018-07-12T16:32:07.688Z,71.20
2018-07-12T16:34:36.370Z,70.70
2018-07-12T16:37:05.541Z,71.50
2018-07-12T16:39:34.595Z,71.60
2018-07-12T16:42:03.328Z,71.20
2018-07-12T16:44:31.857Z,72.00
2018-07-12T16:47:01.332Z,71.80
2018-07-12T16:49:29.844Z,72.90
2018-07-12T16:51:58.579Z,71.00
2018-07-12T16:54:27.231Z,71.50
2018-07-12T16:56:55.843Z,71.20
2018-07-12T16:59:24.433Z,71.10
2018-07-12T17:01:53.231Z,71.50
2018-07-12T17:04:22.111Z,71.50
2018-07-12T17:06:50.894Z,71.80
2018-07-12T17:09:19.471Z,71.80
2018-07-12T17:11:48.057Z,70.70
2018-07-12T17:14:16.640Z,70.80
2018-07-12T17:16:46.083Z,71.70
2018-07-12T17:19:14.762Z,70.80
2018-07-12T17:21:43.442Z,70.30
2018-07-12T17:24:12.851Z,70.70
2018-07-12T17:26:41.537Z,70.70
2018-07-12T17:29:10.166Z,72.20
2018-07-12T17:31:38.915Z,72.20
2018-07-12T17:34:07.607Z,72.00
2018-07-12T17:36:36.142Z,72.00
2018-07-12T17:39:07.381Z,72.70
2018-07-12T17:41:36.008Z,72.60
2018-07-12T17:44:04.752Z,73.50
2018-07-12T17:46:33.317Z,72.60
2018-07-12T17:49:01.898Z,73.10
2018-07-12T17:51:30.432Z,73.80
2018-07-12T17:53:59.120Z,73.10
2018-07-12T17:56:27.719Z,72.50
2018-07-12T17:58:56.348Z,73.40
2018-07-12T18:01:25.141Z,73.40
2018-07-12T18:03:53.964Z,72.70
2018-07-12T18:06:22.829Z,75.10
2018-07-12T18:08:51.507Z,75.80
2018-07-12T18:11:20.203Z,75.20
2018-07-12T18:13:49.095Z,74.90
2018-07-12T18:16:18.899Z,74.50
2018-07-12T18:18:47.705Z,75.70
2018-07-12T18:21:16.481Z,76.90
2018-07-12T18:23:45.708Z,77.10
2018-07-12T18:26:14.465Z,77.60
2018-07-12T18:28:43.201Z,77.00
2018-07-12T18:31:11.890Z,77.20
2018-07-12T18:33:40.594Z,77.40
2018-07-12T18:36:09.497Z,77.10
2018-07-12T18:38:38.259Z,76.30
2018-07-12T18:41:07.157Z,77.20
2018-07-12T18:43:37.282Z,76.80
2018-07-12T18:46:06.628Z,77.30
2018-07-12T18:51:04.322Z,78.10
2018-07-12T18:53:33.280Z,78.40
2018-07-12T18:56:02.120Z,77.60
2018-07-12T18:58:31.022Z,77.50
2018-07-12T19:01:01.588Z,77.90
2018-07-12T19:03:30.635Z,77.30
2018-07-12T19:06:00.272Z,77.20
2018-07-12T19:08:30.145Z,77.70
2018-07-12T19:10:59.416Z,77.60
2018-07-12T19:13:29.057Z,77.90
2018-07-12T19:15:58.148Z,78.20
2018-07-12T19:18:27.655Z,78.40
2018-07-12T19:20:57.280Z,78.40
2018-07-12T19:23:26.752Z,78.40
2018-07-12T19:25:57.006Z,78.60
2018-07-12T19:28:26.808Z,78.80
2018-07-12T19:30:56.030Z,78.90
2018-07-12T19:33:25.571Z,79.10
2018-07-12T19:35:54.742Z,79.30
2018-07-12T19:38:23.702Z,80.10
2018-07-12T19:40:52.838Z,80.10
2018-07-12T19:43:22.228Z,80.10
2018-07-12T19:45:51.349Z,80.40
2018-07-12T19:48:20.822Z,80.80
2018-07-12T19:50:50.235Z,80.60
2018-07-12T19:53:20.073Z,81.10
2018-07-12T19:55:48.902Z,81.20
2018-07-12T19:58:17.708Z,81.50
2018-07-12T20:00:47.323Z,81.80
2018-07-12T20:03:16.471Z,81.40
2018-07-12T20:05:46.422Z,81.10
2018-07-12T20:08:15.470Z,81.10
2018-07-12T20:10:44.751Z,81.50
2018-07-12T20:13:13.874Z,80.90
2018-07-12T20:15:43.093Z,81.20
2018-07-12T20:18:12.174Z,81.60
2018-07-12T20:20:41.193Z,81.70
2018-07-12T20:23:09.903Z,81.70
2018-07-12T20:28:07.914Z,82.10
2018-07-12T20:30:36.850Z,82.40
2018-07-12T20:33:06.876Z,82.50
2018-07-12T20:35:36.102Z,82.70
2018-07-12T20:38:04.968Z,82.80
2018-07-12T20:40:33.806Z,82.90
2018-07-12T20:43:02.653Z,82.90
2018-07-12T20:45:31.348Z,82.80
2018-07-12T20:48:00.316Z,83.20
2018-07-12T20:50:29.241Z,83.40
2018-07-12T20:52:58.384Z,83.90
2018-07-12T20:55:27.064Z,84.40
2018-07-12T20:57:55.678Z,85.60
2018-07-12T21:00:25.044Z,85.70
2018-07-12T21:02:53.656Z,86.10
2018-07-12T21:05:22.199Z,86.40
2018-07-12T21:07:50.733Z,86.70
2018-07-12T21:10:19.333Z,86.90
2018-07-12T21:12:47.935Z,87.20
2018-07-12T21:15:16.505Z,87.70
2018-07-12T21:17:45.035Z,88.00
2018-07-12T21:20:13.631Z,88.30
2018-07-12T21:22:42.789Z,88.70
2018-07-12T21:25:11.321Z,89.00
2018-07-12T21:27:39.855Z,89.80
2018-07-12T21:30:10.252Z,89.40
2018-07-12T21:32:38.798Z,89.90
2018-07-12T21:37:36.065Z,89.80
2018-07-12T21:40:05.457Z,90.00
2018-07-12T21:42:33.985Z,90.10
2018-07-12T21:45:02.537Z,90.10
2018-07-12T21:52:27.415Z,90.70
2018-07-12T21:54:55.969Z,90.90
2018-07-12T21:59:52.626Z,91.00
2018-07-12T22:02:21.101Z,91.40
2018-07-12T22:04:49.588Z,91.60
2018-07-12T22:08:30.678Z,91.60
2018-07-12T22:11:03.553Z,91.50
2018-07-12T22:13:33.250Z,91.80
2018-07-12T22:16:01.755Z,91.50
2018-07-12T22:18:30.296Z,91.40
2018-07-12T22:23:27.663Z,91.50
2018-07-12T22:25:56.193Z,91.40
2018-07-12T22:28:24.701Z,91.50
2018-07-12T22:30:53.235Z,91.50
2018-07-12T22:33:21.740Z,91.50
2018-07-12T22:35:50.364Z,91.60
2018-07-12T22:38:18.964Z,91.70
2018-07-12T22:40:47.499Z,92.10
2018-07-12T22:45:44.372Z,92.80
2018-07-12T22:50:41.053Z,92.30
2018-07-12T22:53:10.164Z,92.10
2018-07-12T22:55:38.614Z,92.30
2018-07-12T22:58:07.138Z,92.20
2018-07-12T23:00:35.590Z,92.20
2018-07-12T23:05:33.094Z,92.70
2018-07-12T23:08:01.590Z,92.60
2018-07-12T23:10:30.087Z,92.60
2018-07-12T23:12:58.570Z,92.70
2018-07-12T23:15:27.054Z,92.60
2018-07-12T23:17:55.523Z,92.40
2018-07-12T23:20:24.027Z,92.80
2018-07-12T23:22:52.509Z,93.00
2018-07-12T23:27:49.095Z,92.70
2018-07-12T23:30:17.764Z,92.90
2018-07-12T23:32:46.276Z,92.90
2018-07-12T23:35:14.836Z,92.90
2018-07-12T23:37:43.338Z,92.90
2018-07-12T23:40:11.796Z,93.40
2018-07-12T23:42:40.288Z,93.50
2018-07-12T23:45:08.746Z,93.70
2018-07-12T23:47:37.270Z,93.60
2018-07-12T23:50:05.811Z,93.00
2018-07-12T23:52:34.362Z,92.90
2018-07-12T23:55:02.843Z,92.80
2018-07-12T23:57:31.386Z,93.00
2018-07-12T23:59:59.856Z,93.20
